createdAt,value
2022-10-15T00:01:26.559Z,6.95
2022-10-15T00:02:28.955Z,7.05
2022-10-15T00:03:31.115Z,7.63
2022-10-15T00:04:34.467Z,7.55
2022-10-15T00:05:40.398Z,7.30
2022-10-15T00:06:42.665Z,8.05
2022-10-15T00:07:44.796Z,7.22
2022-10-15T00:08:48.418Z,7.85
2022-10-15T00:09:53.387Z,7.45
2022-10-15T00:10:55.742Z,7.95
2022-10-15T00:11:58.410Z,7.18
2022-10-15T00:13:00.575Z,7.20
2022-10-15T00:14:03.181Z,7.18
2022-10-15T00:15:05.802Z,7.80
2022-10-15T00:16:11.169Z,7.20
2022-10-15T00:17:13.183Z,6.82
2022-10-15T00:18:16.164Z,6.93
2022-10-15T00:19:18.247Z,6.68
2022-10-15T00:20:23.812Z,6.60
2022-10-15T00:21:28.924Z,6.57
2022-10-15T00:22:30.972Z,6.85
2022-10-15T00:23:34.003Z,6.78
2022-10-15T00:24:37.266Z,7.00
2022-10-15T00:25:42.656Z,7.07
2022-10-15T00:26:44.771Z,6.43
2022-10-15T00:27:47.446Z,6.60
2022-10-15T00:28:52.399Z,7.55
2022-10-15T00:31:07.722Z,7.00
2022-10-15T00:32:15.613Z,6.95
2022-10-15T00:33:20.326Z,7.10
2022-10-15T00:34:22.482Z,6.68
2022-10-15T00:35:24.510Z,6.72
2022-10-15T00:36:33.140Z,7.50
2022-10-15T00:37:35.323Z,6.60
2022-10-15T00:38:41.281Z,7.00
2022-10-15T00:39:45.863Z,7.03
2022-10-15T00:40:48.493Z,7.60
2022-10-15T00:41:50.513Z,7.10
2022-10-15T00:42:54.343Z,7.30
2022-10-15T00:44:29.679Z,7.60
2022-10-15T00:45:32.083Z,7.38
2022-10-15T00:46:45.671Z,7.40
2022-10-15T00:47:49.310Z,7.68
2022-10-15T00:48:58.794Z,6.95
2022-10-15T00:50:16.624Z,7.28
2022-10-15T00:51:23.511Z,6.50
2022-10-15T00:52:58.203Z,6.90
2022-10-15T00:54:00.711Z,6.55
2022-10-15T00:55:11.441Z,7.15
2022-10-15T00:56:16.250Z,6.75
2022-10-15T00:57:18.816Z,7.15
2022-10-15T00:58:29.811Z,6.80
2022-10-15T00:59:33.448Z,6.57
2022-10-15T01:00:35.834Z,7.40
2022-10-15T01:01:38.015Z,6.40
2022-10-15T01:02:40.213Z,6.97
2022-10-15T01:03:44.016Z,6.50
2022-10-15T01:04:47.033Z,6.50
2022-10-15T01:05:53.237Z,6.40
2022-10-15T01:06:56.525Z,5.95
2022-10-15T01:08:01.123Z,6.35
2022-10-15T01:09:04.179Z,6.13
2022-10-15T01:10:12.672Z,6.25
2022-10-15T01:11:26.963Z,6.40
2022-10-15T01:12:47.747Z,6.18
2022-10-15T01:14:23.050Z,6.38
2022-10-15T01:15:39.673Z,5.72
2022-10-15T01:16:50.586Z,5.70
2022-10-15T01:17:55.488Z,5.78
2022-10-15T01:19:07.638Z,6.50
2022-10-15T01:21:27.079Z,6.57
2022-10-15T01:22:52.202Z,6.43
2022-10-15T01:24:20.092Z,6.43
2022-10-15T01:25:44.815Z,6.38
2022-10-15T01:27:15.069Z,6.40
2022-10-15T01:28:19.010Z,5.80
2022-10-15T01:30:13.016Z,6.20
2022-10-15T01:31:15.392Z,6.20
2022-10-15T01:32:30.692Z,6.55
2022-10-15T01:33:37.303Z,6.45
2022-10-15T01:35:01.686Z,6.47
2022-10-15T01:36:34.181Z,6.50
2022-10-15T01:37:46.940Z,6.30
2022-10-15T01:38:58.519Z,6.55
2022-10-15T01:40:28.017Z,6.50
2022-10-15T01:41:49.468Z,5.88
2022-10-15T01:42:58.458Z,6.32
2022-10-15T01:44:32.359Z,6.30
2022-10-15T01:46:04.311Z,5.90
2022-10-15T01:47:48.443Z,6.05
2022-10-15T01:48:56.890Z,5.55
2022-10-15T01:50:03.250Z,6.60
2022-10-15T01:51:09.803Z,6.57
2022-10-15T01:52:22.493Z,6.15
2022-10-15T01:53:27.109Z,6.15
2022-10-15T01:54:32.592Z,6.47
2022-10-15T01:55:37.204Z,6.30
2022-10-15T01:56:41.200Z,6.72
2022-10-15T01:57:45.452Z,6.57
2022-10-15T01:58:57.170Z,6.40
2022-10-15T02:00:01.824Z,6.60
2022-10-15T02:01:07.091Z,6.30
2022-10-15T02:02:11.728Z,6.15
2022-10-15T02:03:15.410Z,6.10
2022-10-15T02:04:25.497Z,6.38
2022-10-15T02:05:35.510Z,6.03
2022-10-15T02:06:44.807Z,5.60
2022-10-15T02:08:10.908Z,6.40
2022-10-15T02:09:28.763Z,6.22
2022-10-15T02:10:57.165Z,6.50
2022-10-15T02:12:14.987Z,5.95
2022-10-15T02:13:44.914Z,6.53
2022-10-15T02:15:08.977Z,6.30
2022-10-15T02:16:27.609Z,6.32
2022-10-15T02:17:39.510Z,6.72
2022-10-15T02:19:18.431Z,6.43
2022-10-15T02:20:25.102Z,5.68
2022-10-15T02:21:54.579Z,6.63
2022-10-15T02:23:14.076Z,6.72
2022-10-15T02:24:25.762Z,6.20
2022-10-15T02:25:29.096Z,6.43
2022-10-15T02:26:37.065Z,6.35
2022-10-15T02:27:40.452Z,6.45
2022-10-15T02:28:48.633Z,6.68
2022-10-15T02:29:53.679Z,6.70
2022-10-15T02:30:59.530Z,6.78
2022-10-15T02:32:05.807Z,6.18
2022-10-15T02:33:08.996Z,6.70
2022-10-15T02:34:20.242Z,5.93
2022-10-15T02:35:36.334Z,6.60
2022-10-15T02:36:43.271Z,6.40
2022-10-15T02:37:49.868Z,5.97
2022-10-15T02:38:58.074Z,6.18
2022-10-15T02:40:00.125Z,6.25
2022-10-15T02:41:05.289Z,6.40
2022-10-15T02:42:07.379Z,6.55
2022-10-15T02:43:11.452Z,6.20
2022-10-15T02:44:14.780Z,6.22
2022-10-15T02:45:18.416Z,6.05
2022-10-15T02:46:21.174Z,6.18
2022-10-15T02:47:23.231Z,6.00
2022-10-15T02:48:25.617Z,6.25
2022-10-15T02:49:30.808Z,6.65
2022-10-15T02:50:32.927Z,6.10
2022-10-15T02:51:35.979Z,5.75
2022-10-15T02:52:39.770Z,6.40
2022-10-15T02:53:41.770Z,7.10
2022-10-15T02:54:48.059Z,6.80
2022-10-15T02:55:51.851Z,6.70
2022-10-15T02:56:53.891Z,6.90
2022-10-15T02:57:57.637Z,7.15
2022-10-15T02:59:00.200Z,6.03
2022-10-15T03:00:02.543Z,6.57
2022-10-15T03:01:05.773Z,6.85
2022-10-15T03:02:14.142Z,6.32
2022-10-15T03:03:19.196Z,6.32
2022-10-15T03:04:22.311Z,6.35
2022-10-15T03:06:34.105Z,6.50
2022-10-15T03:07:40.404Z,6.63
2022-10-15T03:08:50.444Z,6.43
2022-10-15T03:09:54.811Z,6.35
2022-10-15T03:11:01.731Z,6.28
2022-10-15T03:12:05.841Z,6.47
2022-10-15T03:13:08.585Z,7.57
2022-10-15T03:14:19.947Z,5.70
2022-10-15T03:15:24.671Z,5.75
2022-10-15T03:16:26.948Z,6.43
2022-10-15T03:17:33.214Z,6.50
2022-10-15T03:18:40.503Z,6.20
2022-10-15T03:19:46.664Z,6.03
2022-10-15T03:20:57.025Z,6.40
2022-10-15T03:21:59.601Z,6.38
2022-10-15T03:23:11.007Z,6.72
2022-10-15T03:24:14.602Z,6.00
2022-10-15T03:25:18.956Z,6.30
2022-10-15T03:26:23.107Z,6.47
2022-10-15T03:27:26.801Z,6.88
2022-10-15T03:28:29.598Z,6.68
2022-10-15T03:29:33.061Z,6.50
2022-10-15T03:30:42.777Z,6.38
2022-10-15T03:31:46.366Z,6.45
2022-10-15T03:32:48.684Z,6.75
2022-10-15T03:33:51.597Z,6.43
2022-10-15T03:34:57.785Z,6.18
2022-10-15T03:36:00.132Z,6.00
2022-10-15T03:37:02.526Z,6.20
2022-10-15T03:38:06.680Z,6.32
2022-10-15T03:39:09.339Z,6.65
2022-10-15T03:40:14.891Z,6.07
2022-10-15T03:41:18.707Z,6.10
2022-10-15T03:42:22.568Z,6.07
2022-10-15T03:43:26.017Z,6.47
2022-10-15T03:44:31.394Z,6.55
2022-10-15T03:45:42.850Z,6.45
2022-10-15T03:46:56.948Z,6.28
2022-10-15T03:48:04.268Z,6.97
2022-10-15T03:49:10.227Z,6.45
2022-10-15T03:50:15.266Z,6.45
2022-10-15T03:51:22.751Z,6.00
2022-10-15T03:52:40.731Z,6.60
2022-10-15T03:53:43.844Z,5.88
2022-10-15T03:54:49.653Z,6.38
2022-10-15T03:55:54.872Z,6.40
2022-10-15T03:56:57.534Z,6.63
2022-10-15T03:58:09.312Z,6.47
2022-10-15T03:59:17.238Z,6.78
2022-10-15T04:00:30.635Z,6.40
2022-10-15T04:01:36.553Z,5.95
2022-10-15T04:02:42.074Z,6.65
2022-10-15T04:03:55.167Z,5.78
2022-10-15T04:05:00.424Z,5.85
2022-10-15T04:06:03.512Z,5.78
2022-10-15T04:07:08.193Z,5.68
2022-10-15T04:08:10.415Z,6.50
2022-10-15T04:09:16.144Z,6.28
2022-10-15T04:10:18.615Z,6.45
2022-10-15T04:11:23.885Z,6.10
2022-10-15T04:12:35.957Z,6.10
2022-10-15T04:13:40.431Z,5.97
2022-10-15T04:14:43.038Z,5.93
2022-10-15T04:15:45.369Z,6.25
2022-10-15T04:16:48.467Z,6.00
2022-10-15T04:17:55.824Z,6.47
2022-10-15T04:18:59.179Z,6.63
2022-10-15T04:20:01.644Z,5.55
2022-10-15T04:21:04.362Z,6.38
2022-10-15T04:22:13.412Z,6.45
2022-10-15T04:23:22.376Z,6.53
2022-10-15T04:25:03.368Z,6.45
2022-10-15T04:26:07.488Z,5.78
2022-10-15T04:27:09.598Z,5.93
2022-10-15T04:28:12.182Z,6.78
2022-10-15T04:29:15.973Z,6.32
2022-10-15T04:30:18.257Z,6.43
2022-10-15T04:31:42.646Z,6.60
2022-10-15T04:32:45.508Z,6.25
2022-10-15T04:33:49.414Z,6.90
2022-10-15T04:34:52.202Z,6.28
2022-10-15T04:36:06.267Z,6.82
2022-10-15T04:37:23.379Z,6.00
2022-10-15T04:38:25.750Z,6.57
2022-10-15T04:39:36.474Z,6.63
2022-10-15T04:40:41.301Z,6.10
2022-10-15T04:41:44.499Z,6.38
2022-10-15T04:42:57.499Z,6.90
2022-10-15T04:44:01.303Z,6.47
2022-10-15T04:45:07.515Z,6.70
2022-10-15T04:46:10.704Z,6.78
2022-10-15T04:47:13.975Z,6.65
2022-10-15T04:48:19.442Z,6.28
2022-10-15T04:49:22.736Z,6.35
2022-10-15T04:50:25.464Z,7.32
2022-10-15T04:51:45.954Z,7.10
2022-10-15T04:52:52.199Z,6.68
2022-10-15T04:54:09.596Z,6.60
2022-10-15T04:55:21.651Z,6.72
2022-10-15T04:56:25.134Z,6.80
2022-10-15T04:57:28.064Z,7.00
2022-10-15T04:58:32.653Z,6.65
2022-10-15T04:59:34.713Z,6.63
2022-10-15T05:01:08.615Z,6.82
2022-10-15T05:02:26.403Z,6.78
2022-10-15T05:03:42.493Z,6.57
2022-10-15T05:04:47.091Z,6.82
2022-10-15T05:05:49.282Z,6.80
2022-10-15T05:06:51.764Z,6.80
2022-10-15T05:07:55.435Z,7.55
2022-10-15T05:08:57.408Z,6.75
2022-10-15T05:10:05.461Z,7.65
2022-10-15T05:11:20.858Z,7.50
2022-10-15T05:12:23.082Z,7.15
2022-10-15T05:13:25.136Z,7.15
2022-10-15T05:14:30.316Z,7.20
2022-10-15T05:15:47.118Z,7.63
2022-10-15T05:16:51.348Z,7.18
2022-10-15T05:17:53.675Z,7.32
2022-10-15T05:19:04.809Z,6.97
2022-10-15T05:20:08.155Z,6.78
2022-10-15T05:21:14.416Z,7.65
2022-10-15T05:22:18.293Z,7.38
2022-10-15T05:24:42.860Z,7.43
2022-10-15T05:26:04.309Z,7.95
2022-10-15T05:27:06.296Z,7.93
2022-10-15T05:28:09.176Z,8.38
2022-10-15T05:29:11.149Z,7.35
2022-10-15T05:30:13.762Z,8.25
2022-10-15T05:31:25.192Z,7.80
2022-10-15T05:32:37.365Z,7.93
2022-10-15T05:33:39.817Z,8.20
2022-10-15T05:34:41.946Z,7.90
2022-10-15T05:35:49.219Z,7.78
2022-10-15T05:36:51.270Z,7.82
2022-10-15T05:37:55.959Z,7.70
2022-10-15T05:39:03.160Z,8.32
2022-10-15T05:40:08.099Z,7.90
2022-10-15T05:41:10.929Z,8.32
2022-10-15T05:42:13.089Z,8.05
2022-10-15T05:43:25.909Z,8.95
2022-10-15T05:44:38.904Z,7.55
2022-10-15T05:45:41.142Z,8.65
2022-10-15T05:46:43.329Z,8.00
2022-10-15T05:47:55.370Z,7.88
2022-10-15T05:48:59.205Z,8.25
2022-10-15T05:50:05.155Z,7.93
2022-10-15T05:51:16.147Z,7.45
2022-10-15T05:52:19.444Z,7.75
2022-10-15T05:53:58.577Z,8.05
2022-10-15T05:55:02.300Z,7.93
2022-10-15T05:56:05.677Z,9.25
2022-10-15T05:57:08.358Z,8.40
2022-10-15T05:58:10.646Z,7.80
2022-10-15T05:59:13.300Z,8.90
2022-10-15T06:00:16.835Z,8.98
2022-10-15T06:01:27.472Z,8.35
2022-10-15T06:02:29.839Z,8.00
2022-10-15T06:03:32.721Z,8.10
2022-10-15T06:04:35.824Z,8.65
2022-10-15T06:05:38.376Z,8.25
2022-10-15T06:06:41.411Z,8.05
2022-10-15T06:07:44.444Z,8.20
2022-10-15T06:08:48.356Z,7.55
2022-10-15T06:09:50.594Z,8.85
2022-10-15T06:10:52.904Z,8.48
2022-10-15T06:11:54.911Z,9.00
2022-10-15T06:13:02.064Z,8.60
2022-10-15T06:14:04.195Z,9.15
2022-10-15T06:15:06.874Z,8.10
2022-10-15T06:16:09.894Z,8.88
2022-10-15T06:17:14.422Z,8.95
2022-10-15T06:18:17.602Z,8.80
2022-10-15T06:19:19.602Z,8.27
2022-10-15T06:20:22.635Z,8.05
2022-10-15T06:21:24.870Z,8.00
2022-10-15T06:22:27.078Z,8.38
2022-10-15T06:23:29.352Z,8.30
2022-10-15T06:24:31.423Z,8.52
2022-10-15T06:25:36.451Z,8.48
2022-10-15T06:26:38.454Z,9.10
2022-10-15T06:27:40.684Z,9.35
2022-10-15T06:28:42.743Z,9.38
2022-10-15T06:29:44.722Z,9.68
2022-10-15T06:30:46.802Z,9.00
2022-10-15T06:31:49.495Z,8.75
2022-10-15T06:32:53.095Z,8.73
2022-10-15T06:33:55.086Z,7.97
2022-10-15T06:34:57.217Z,8.98
2022-10-15T06:36:10.907Z,8.00
2022-10-15T06:37:13.275Z,8.90
2022-10-15T06:38:15.634Z,8.90
2022-10-15T06:39:18.401Z,7.93
2022-10-15T06:40:20.684Z,8.45
2022-10-15T06:41:23.650Z,7.97
2022-10-15T06:42:26.309Z,8.38
2022-10-15T06:43:32.642Z,9.02
2022-10-15T06:44:36.900Z,10.00
2022-10-15T06:45:42.640Z,11.52
2022-10-15T06:46:52.112Z,9.05
2022-10-15T06:47:55.217Z,8.70
2022-10-15T06:48:57.417Z,8.10
2022-10-15T06:50:00.827Z,8.88
2022-10-15T06:51:03.426Z,8.48
2022-10-15T06:52:06.197Z,9.05
2022-10-15T06:53:08.783Z,8.75
2022-10-15T06:54:12.250Z,8.98
2022-10-15T06:55:14.373Z,9.45
2022-10-15T06:56:16.552Z,8.93
2022-10-15T06:57:20.553Z,8.00
2022-10-15T06:58:22.571Z,17.13
2022-10-15T06:59:27.073Z,9.02
2022-10-15T07:01:39.865Z,12.57
2022-10-15T07:02:45.765Z,9.48
2022-10-15T07:03:54.155Z,8.15
2022-10-15T07:04:56.394Z,8.35
2022-10-15T07:06:06.102Z,8.60
2022-10-15T07:07:08.220Z,8.13
2022-10-15T07:08:10.559Z,7.95
2022-10-15T07:09:13.107Z,8.18
2022-10-15T07:10:16.262Z,8.52
2022-10-15T07:11:18.483Z,8.18
2022-10-15T07:12:22.656Z,8.30
2022-10-15T07:13:25.158Z,8.55
2022-10-15T07:14:27.050Z,7.65
2022-10-15T07:15:29.748Z,7.63
2022-10-15T07:16:31.870Z,7.18
2022-10-15T07:17:35.378Z,6.85
2022-10-15T07:18:38.220Z,6.65
2022-10-15T07:19:41.553Z,6.88
2022-10-15T07:20:43.488Z,7.03
2022-10-15T07:21:45.611Z,6.60
2022-10-15T07:22:49.256Z,7.38
2022-10-15T07:23:52.440Z,7.10
2022-10-15T07:24:54.700Z,7.20
2022-10-15T07:26:01.150Z,7.13
2022-10-15T07:27:08.324Z,6.95
2022-10-15T07:28:20.663Z,7.03
2022-10-15T07:29:25.024Z,7.18
2022-10-15T07:30:30.058Z,7.13
2022-10-15T07:31:32.303Z,7.20
2022-10-15T07:32:35.215Z,7.38
2022-10-15T07:33:37.656Z,7.07
2022-10-15T07:34:39.767Z,7.95
2022-10-15T07:35:44.456Z,7.82
2022-10-15T07:36:46.506Z,11.77
2022-10-15T07:37:50.945Z,7.65
2022-10-15T07:38:55.794Z,7.93
2022-10-15T07:39:58.370Z,8.23
2022-10-15T07:41:01.538Z,6.90
2022-10-15T07:42:07.224Z,7.30
2022-10-15T07:43:09.932Z,8.73
2022-10-15T07:44:12.401Z,8.48
2022-10-15T07:45:14.566Z,8.10
2022-10-15T07:46:16.509Z,8.13
2022-10-15T07:47:18.939Z,7.97
2022-10-15T07:48:21.152Z,8.27
2022-10-15T07:49:23.382Z,7.47
2022-10-15T07:50:28.126Z,8.00
2022-10-15T07:51:35.799Z,8.13
2022-10-15T07:52:38.271Z,7.45
2022-10-15T07:53:40.633Z,7.30
2022-10-15T07:54:42.762Z,7.35
2022-10-15T07:55:50.353Z,7.13
2022-10-15T07:56:52.411Z,7.40
2022-10-15T07:58:00.507Z,7.18
2022-10-15T07:59:02.960Z,7.85
2022-10-15T08:00:06.714Z,9.40
2022-10-15T08:01:14.589Z,11.70
2022-10-15T08:02:18.663Z,12.13
2022-10-15T08:03:21.226Z,7.90
2022-10-15T08:04:23.348Z,6.82
2022-10-15T08:05:25.300Z,7.72
2022-10-15T08:06:27.552Z,7.18
2022-10-15T08:07:29.690Z,7.70
2022-10-15T08:08:33.032Z,7.07
2022-10-15T08:09:35.613Z,6.88
2022-10-15T08:10:37.765Z,6.90
2022-10-15T08:11:39.740Z,8.57
2022-10-15T08:12:45.148Z,6.88
2022-10-15T08:13:50.187Z,7.93
2022-10-15T08:14:52.194Z,11.07
2022-10-15T08:15:57.874Z,9.75
2022-10-15T08:17:03.924Z,7.95
2022-10-15T08:18:06.027Z,7.25
2022-10-15T08:19:08.088Z,6.57
2022-10-15T08:20:11.172Z,6.97
2022-10-15T08:21:13.776Z,7.15
2022-10-15T08:22:16.983Z,6.95
2022-10-15T08:23:19.165Z,6.40
2022-10-15T08:24:21.485Z,6.30
2022-10-15T08:25:23.749Z,6.00
2022-10-15T08:26:26.793Z,6.70
2022-10-15T08:27:28.932Z,6.20
2022-10-15T08:28:34.732Z,7.03
2022-10-15T08:29:40.281Z,7.13
2022-10-15T08:30:45.812Z,6.00
2022-10-15T08:31:51.890Z,6.30
2022-10-15T08:32:58.695Z,6.38
2022-10-15T08:34:02.202Z,6.45
2022-10-15T08:35:06.494Z,5.53
2022-10-15T08:36:08.911Z,5.90
2022-10-15T08:37:12.279Z,6.03
2022-10-15T08:38:17.492Z,6.18
2022-10-15T08:39:21.851Z,6.13
2022-10-15T08:40:23.960Z,6.30
2022-10-15T08:41:41.106Z,6.78
2022-10-15T08:42:46.203Z,7.28
2022-10-15T08:43:51.723Z,6.47
2022-10-15T08:45:02.120Z,7.03
2022-10-15T08:46:12.793Z,6.60
2022-10-15T08:47:45.232Z,7.43
2022-10-15T08:48:56.807Z,6.93
2022-10-15T08:50:01.389Z,7.45
2022-10-15T08:51:28.647Z,7.63
2022-10-15T08:52:36.876Z,6.85
2022-10-15T08:53:52.971Z,7.95
2022-10-15T08:54:56.844Z,7.80
2022-10-15T08:56:13.755Z,7.28
2022-10-15T08:57:37.580Z,7.47
2022-10-15T08:58:55.180Z,7.93
2022-10-15T09:00:22.713Z,7.35
2022-10-15T09:01:50.566Z,6.97
2022-10-15T09:03:05.617Z,7.90
2022-10-15T09:04:19.788Z,7.45
2022-10-15T09:05:43.129Z,8.40
2022-10-15T09:06:47.227Z,7.55
2022-10-15T09:08:21.673Z,7.22
2022-10-15T09:09:41.203Z,7.63
2022-10-15T09:10:53.772Z,8.50
2022-10-15T09:12:17.509Z,8.60
2022-10-15T09:13:31.130Z,7.65
2022-10-15T09:14:41.553Z,9.00
2022-10-15T09:15:54.094Z,7.53
2022-10-15T09:17:26.225Z,8.52
2022-10-15T09:18:45.164Z,8.93
2022-10-15T09:20:05.983Z,8.77
2022-10-15T09:21:09.949Z,9.20
2022-10-15T09:22:18.559Z,10.10
2022-10-15T09:23:28.632Z,9.45
2022-10-15T09:24:31.345Z,29.98
2022-10-15T09:25:37.070Z,11.15
2022-10-15T09:26:52.032Z,9.82
2022-10-15T09:27:54.519Z,9.05
2022-10-15T09:29:22.386Z,9.02
2022-10-15T09:30:47.734Z,8.70
2022-10-15T09:32:10.707Z,9.27
2022-10-15T09:33:45.861Z,8.40
2022-10-15T09:35:00.932Z,7.90
2022-10-15T09:36:27.624Z,8.88
2022-10-15T09:37:48.127Z,8.13
2022-10-15T09:38:55.944Z,8.30
2022-10-15T09:40:23.216Z,9.43
2022-10-15T09:41:56.590Z,9.25
2022-10-15T09:43:00.324Z,8.77
2022-10-15T09:44:05.660Z,7.95
2022-10-15T09:45:15.584Z,8.00
2022-10-15T09:46:18.363Z,8.40
2022-10-15T09:47:37.322Z,8.18
2022-10-15T09:48:51.658Z,7.95
2022-10-15T09:49:53.706Z,11.55
2022-10-15T09:51:24.117Z,8.27
2022-10-15T09:53:06.123Z,9.30
2022-10-15T09:54:30.137Z,7.90
2022-10-15T09:55:52.226Z,8.50
2022-10-15T09:57:00.194Z,7.57
2022-10-15T09:58:10.646Z,8.40
2022-10-15T09:59:39.397Z,7.70
2022-10-15T10:00:57.377Z,7.95
2022-10-15T10:02:14.037Z,7.60
2022-10-15T10:03:17.251Z,7.45
2022-10-15T10:04:22.237Z,8.43
2022-10-15T10:05:32.787Z,8.43
2022-10-15T10:06:48.004Z,7.35
2022-10-15T10:07:50.612Z,7.93
2022-10-15T10:08:56.391Z,7.65
2022-10-15T10:10:07.450Z,8.50
2022-10-15T10:11:13.023Z,8.10
2022-10-15T10:12:29.083Z,7.95
2022-10-15T10:13:34.370Z,7.60
2022-10-15T10:14:43.139Z,7.68
2022-10-15T10:15:46.364Z,8.40
2022-10-15T10:17:17.479Z,10.38
2022-10-15T10:18:23.180Z,8.40
2022-10-15T10:19:25.200Z,8.20
2022-10-15T10:20:32.729Z,7.78
2022-10-15T10:21:39.490Z,8.70
2022-10-15T10:22:51.271Z,8.93
2022-10-15T10:23:54.222Z,8.82
2022-10-15T10:24:56.401Z,8.50
2022-10-15T10:26:00.107Z,9.82
2022-10-15T10:28:16.877Z,9.25
2022-10-15T10:29:36.550Z,8.70
2022-10-15T10:30:48.264Z,8.68
2022-10-15T10:31:52.456Z,9.38
2022-10-15T10:33:06.492Z,9.50
2022-10-15T10:34:16.297Z,9.35
2022-10-15T10:35:23.060Z,9.38
2022-10-15T10:36:34.052Z,9.00
2022-10-15T10:37:44.046Z,9.90
2022-10-15T10:39:25.885Z,8.60
2022-10-15T10:40:36.976Z,9.95
2022-10-15T10:42:09.703Z,11.13
2022-10-15T10:43:17.578Z,10.00
2022-10-15T10:44:30.790Z,10.38
2022-10-15T10:45:35.082Z,10.30
2022-10-15T10:46:37.196Z,11.27
2022-10-15T10:47:40.646Z,10.82
2022-10-15T10:48:52.128Z,12.60
2022-10-15T10:49:56.702Z,11.18
2022-10-15T10:51:16.857Z,10.98
2022-10-15T10:52:40.582Z,11.65
2022-10-15T10:54:35.794Z,12.88
2022-10-15T10:56:44.417Z,12.32
2022-10-15T10:58:08.566Z,15.18
2022-10-15T10:59:46.298Z,11.85
2022-10-15T11:01:51.484Z,11.98
2022-10-15T11:03:22.950Z,12.57
2022-10-15T11:05:48.879Z,13.23
2022-10-15T11:07:50.849Z,13.38
2022-10-15T11:11:47.317Z,14.65
2022-10-15T11:13:08.488Z,14.50
2022-10-15T11:18:05.830Z,13.88
2022-10-15T11:19:59.601Z,12.55
2022-10-15T11:21:07.214Z,11.93
2022-10-15T11:22:24.369Z,12.18
2022-10-15T11:24:05.318Z,11.00
2022-10-15T11:25:28.583Z,11.45
2022-10-15T11:26:41.691Z,11.82
2022-10-15T11:28:05.578Z,11.65
2022-10-15T11:29:36.415Z,10.90
2022-10-15T11:33:01.837Z,11.90
2022-10-15T11:34:03.743Z,11.00
2022-10-15T11:35:48.268Z,11.27
2022-10-15T11:37:23.408Z,11.38
2022-10-15T11:38:39.149Z,10.82
2022-10-15T11:39:54.866Z,12.48
2022-10-15T11:41:36.582Z,11.48
2022-10-15T11:42:57.398Z,12.02
2022-10-15T11:44:31.001Z,10.63
2022-10-15T11:45:52.758Z,11.55
2022-10-15T11:47:03.862Z,11.13
2022-10-15T11:48:23.009Z,10.60
2022-10-15T11:49:59.480Z,11.30
2022-10-15T11:51:23.581Z,10.52
2022-10-15T11:52:45.298Z,10.48
2022-10-15T11:53:57.855Z,11.50
2022-10-15T11:55:08.116Z,10.25
2022-10-15T11:57:00.610Z,10.65
2022-10-15T12:00:18.285Z,10.57
2022-10-15T12:01:29.524Z,11.05
2022-10-15T12:02:38.484Z,11.30
2022-10-15T12:05:01.469Z,11.30
2022-10-15T12:08:26.257Z,10.70
2022-10-15T12:09:36.990Z,11.00
2022-10-15T12:11:10.069Z,9.85
2022-10-15T12:12:31.073Z,11.30
2022-10-15T12:13:48.665Z,9.73
2022-10-15T12:15:40.832Z,9.35
2022-10-15T12:17:20.653Z,8.90
2022-10-15T12:18:29.160Z,9.57
2022-10-15T12:19:50.393Z,10.02
2022-10-15T12:20:55.839Z,9.63
2022-10-15T12:22:07.069Z,10.27
2022-10-15T12:23:40.787Z,10.63
2022-10-15T12:24:50.420Z,11.48
2022-10-15T12:25:53.110Z,14.23
2022-10-15T12:26:55.372Z,11.23
2022-10-15T12:28:02.603Z,10.35
2022-10-15T12:29:07.411Z,11.52
2022-10-15T12:30:13.841Z,11.00
2022-10-15T12:31:20.380Z,10.75
2022-10-15T12:32:36.423Z,11.02
2022-10-15T12:33:48.232Z,11.68
2022-10-15T12:35:02.317Z,11.27
2022-10-15T12:36:30.556Z,11.10
2022-10-15T12:37:36.353Z,11.23
2022-10-15T12:38:43.913Z,11.75
2022-10-15T12:39:52.668Z,11.60
2022-10-15T12:41:20.425Z,14.80
2022-10-15T12:42:33.484Z,12.73
2022-10-15T12:43:41.295Z,11.65
2022-10-15T12:44:50.034Z,11.88
2022-10-15T12:46:02.840Z,11.43
2022-10-15T12:47:06.731Z,14.70
2022-10-15T12:48:08.988Z,16.05
2022-10-15T12:49:35.426Z,15.23
2022-10-15T12:50:37.649Z,12.25
2022-10-15T12:51:41.577Z,11.00
2022-10-15T12:53:00.406Z,11.30
2022-10-15T12:54:33.305Z,11.77
2022-10-15T12:55:38.231Z,9.63
2022-10-15T12:56:41.983Z,9.75
2022-10-15T12:57:46.929Z,10.07
2022-10-15T12:58:56.213Z,9.55
2022-10-15T13:00:01.813Z,8.80
2022-10-15T13:01:23.969Z,9.77
2022-10-15T13:02:50.214Z,9.52
2022-10-15T13:04:02.499Z,12.27
2022-10-15T13:05:19.342Z,9.52
2022-10-15T13:06:22.565Z,10.63
2022-10-15T13:07:28.302Z,11.73
2022-10-15T13:08:32.055Z,11.32
2022-10-15T13:15:31.400Z,11.30
2022-10-15T13:21:12.973Z,10.10
2022-10-15T13:22:36.408Z,10.45
2022-10-15T13:23:49.957Z,9.25
2022-10-15T13:24:56.262Z,9.50
2022-10-15T13:26:19.364Z,9.70
2022-10-15T13:27:37.434Z,9.25
2022-10-15T13:28:45.245Z,10.23
2022-10-15T13:30:05.495Z,8.90
2022-10-15T13:31:45.353Z,8.98
2022-10-15T13:32:53.027Z,9.00
2022-10-15T13:34:13.846Z,9.95
2022-10-15T13:35:29.495Z,10.48
2022-10-15T13:36:35.446Z,9.07
2022-10-15T13:37:46.229Z,10.00
2022-10-15T13:38:55.639Z,10.10
2022-10-15T13:40:03.087Z,9.75
2022-10-15T13:41:09.886Z,9.23
2022-10-15T13:42:17.327Z,9.90
2022-10-15T13:43:22.899Z,8.48
2022-10-15T13:44:25.886Z,9.60
2022-10-15T13:45:29.743Z,9.35
2022-10-15T13:46:38.224Z,9.18
2022-10-15T13:47:43.371Z,9.27
2022-10-15T13:48:46.066Z,9.25
2022-10-15T13:49:52.120Z,9.02
2022-10-15T13:51:06.054Z,9.27
2022-10-15T13:52:10.513Z,9.57
2022-10-15T13:53:29.953Z,8.70
2022-10-15T13:54:33.222Z,9.27
2022-10-15T13:55:44.652Z,9.18
2022-10-15T13:57:02.307Z,8.07
2022-10-15T13:58:14.600Z,8.43
2022-10-15T13:59:20.470Z,8.75
2022-10-15T14:00:38.066Z,7.95
2022-10-15T14:01:48.364Z,8.65
2022-10-15T14:03:22.428Z,8.68
2022-10-15T14:04:24.956Z,8.75
2022-10-15T14:05:27.777Z,8.60
2022-10-15T14:06:38.366Z,8.32
2022-10-15T14:07:40.921Z,8.88
2022-10-15T14:08:43.161Z,9.48
2022-10-15T14:09:49.163Z,9.35
2022-10-15T14:10:55.542Z,9.90
2022-10-15T14:12:02.252Z,9.00
2022-10-15T14:13:08.789Z,9.65
2022-10-15T14:14:41.846Z,9.60
2022-10-15T14:15:52.389Z,10.38
2022-10-15T14:17:02.004Z,10.63
2022-10-15T14:18:04.611Z,9.40
2022-10-15T14:19:07.699Z,9.98
2022-10-15T14:20:27.222Z,10.18
2022-10-15T14:21:32.859Z,10.18
2022-10-15T14:22:44.785Z,9.32
2022-10-15T14:23:49.216Z,9.57
2022-10-15T14:24:56.975Z,9.98
2022-10-15T14:26:02.763Z,9.50
2022-10-15T14:27:16.225Z,10.80
2022-10-15T14:28:22.338Z,9.90
2022-10-15T14:29:35.910Z,10.50
2022-10-15T14:30:39.612Z,17.80
2022-10-15T14:31:48.504Z,17.52
2022-10-15T14:32:56.939Z,17.33
2022-10-15T14:34:03.393Z,11.77
2022-10-15T14:35:10.785Z,13.00
2022-10-15T14:36:26.756Z,10.35
2022-10-15T14:37:45.562Z,9.93
2022-10-15T14:38:51.450Z,9.60
2022-10-15T14:40:11.273Z,10.07
2022-10-15T14:41:35.078Z,10.27
2022-10-15T14:43:06.697Z,13.18
2022-10-15T14:44:11.642Z,10.15
2022-10-15T14:45:42.383Z,10.25
2022-10-15T14:47:08.691Z,9.90
2022-10-15T14:48:39.682Z,9.68
2022-10-15T14:49:49.271Z,12.85
2022-10-15T14:50:58.244Z,11.05
2022-10-15T14:52:21.410Z,10.77
2022-10-15T14:53:48.243Z,10.70
2022-10-15T14:56:01.067Z,9.70
2022-10-15T14:57:24.541Z,29.42
2022-10-15T14:58:31.078Z,23.25
2022-10-15T14:59:38.127Z,17.00
2022-10-15T15:00:55.163Z,12.50
2022-10-15T15:02:06.470Z,11.10
2022-10-15T15:03:17.869Z,14.70
2022-10-15T15:05:14.592Z,11.38
2022-10-15T15:06:34.989Z,10.98
2022-10-15T15:07:41.302Z,11.13
2022-10-15T15:08:46.522Z,11.48
2022-10-15T15:09:52.090Z,10.90
2022-10-15T15:11:00.325Z,10.75
2022-10-15T15:12:07.701Z,10.68
2022-10-15T15:13:22.327Z,10.60
2022-10-15T15:14:40.425Z,10.95
2022-10-15T15:15:44.084Z,12.18
2022-10-15T15:16:49.060Z,49.75
2022-10-15T15:17:54.046Z,24.75
2022-10-15T15:18:58.743Z,28.35
2022-10-15T15:20:01.367Z,39.80
2022-10-15T15:21:08.167Z,90.32
2022-10-15T15:22:16.897Z,97.03
2022-10-15T15:23:25.453Z,62.95
2022-10-15T15:24:27.753Z,45.95
2022-10-15T15:25:31.500Z,20.58
2022-10-15T15:26:33.525Z,14.00
2022-10-15T15:27:37.842Z,24.65
2022-10-15T15:28:40.117Z,21.77
2022-10-15T15:29:43.124Z,24.38
2022-10-15T15:30:45.531Z,17.67
2022-10-15T15:31:48.187Z,18.08
2022-10-15T15:32:50.559Z,20.45
2022-10-15T15:33:52.718Z,22.63
2022-10-15T15:34:58.893Z,20.35
2022-10-15T15:36:19.068Z,17.33
2022-10-15T15:37:27.455Z,22.25
2022-10-15T15:38:32.533Z,21.35
2022-10-15T15:39:35.018Z,20.13
2022-10-15T15:40:39.541Z,16.10
2022-10-15T15:41:41.828Z,15.52
2022-10-15T15:42:45.265Z,17.67
2022-10-15T15:43:48.578Z,13.93
2022-10-15T15:44:50.987Z,16.17
2022-10-15T15:45:53.006Z,19.10
2022-10-15T15:46:56.121Z,18.92
2022-10-15T15:48:02.248Z,23.70
2022-10-15T15:49:04.741Z,21.35
2022-10-15T15:50:07.647Z,25.58
2022-10-15T15:51:29.258Z,24.50
2022-10-15T15:52:35.614Z,22.45
2022-10-15T15:53:40.101Z,20.80
2022-10-15T15:54:42.230Z,20.35
2022-10-15T15:55:46.596Z,23.40